Time;durP1;ratioP1;P1;durP2;ratioP2;P2;SDS_P1;SDS_P2;PMS_P1;PMS_P2;Temp;Humidity;BMP_temperature;BMP_pressure;BME280_temperature;BME280_humidity;BME280_pressure;Samples;Min_cycle;Max_cycle;Signal;HPM_P1;HPM_P2
2023/01/12 00:01:34;;;;;;;;;;;;;;;;;;5115173;28;19907;-25
2023/01/12 00:04:02;;;;;;;;;;;;;;;;;;5114765;28;19912;-27
2023/01/12 00:06:28;;;;;;;;;;;;;;;;;;5114814;28;19908;-29
2023/01/12 00:08:54;;;;;;;;;;;;;;;;;;5115133;28;19912;-34
2023/01/12 00:11:20;;;;;;;;;;;;;;;;;;5116121;28;20398;-27
2023/01/12 00:13:46;;;;;;;;;;;;;;;;;;5118567;28;19919;-28
2023/01/12 00:18:56;;;;;;;;;;;;;;;;;;5118672;28;19919;-30
2023/01/12 00:21:22;;;;;;;;;;;;;;;;;;5118506;28;19912;-29
2023/01/12 00:23:48;;;;;;;;;;;;;;;;;;5100444;28;20249;-26
2023/01/12 00:26:14;;;;;;;;;;;;;;;;;;5118442;28;19912;-32
2023/01/12 00:28:40;;;;;;;;;;;;;;;;;;5118361;28;19915;-28
2023/01/12 00:31:09;;;;;;;;;;;;;;;;;;5100339;28;20029;-28
2023/01/12 00:33:35;;;;;;;;;;;;;;;;;;5118212;28;19916;-29
2023/01/12 00:36:01;;;;;;;;;;;;;;;;;;5118288;28;20393;-30
2023/01/12 00:38:27;;;;;;;;;;;;;;;;;;5100208;28;19912;-28
2023/01/12 00:40:53;;;;;;;;;;;;;;;;;;5118421;28;19916;-25
2023/01/12 00:46:04;;;;;;;;;;;;;;;;;;5118095;28;19923;-27
2023/01/12 00:48:30;;;;;;;;;;;;;;;;;;5118008;28;19911;-24
2023/01/12 00:50:56;;;;;;;;;;;;;;;;;;5117957;28;20089;-29
2023/01/12 00:53:22;;;;;;;;;;;;;;;;;;5117916;28;19919;-28
2023/01/12 00:55:48;;;;;;;;;;;;;;;;;;5117900;28;20296;-28
2023/01/12 00:58:14;;;;;;;;;;;;;;;;;;5117803;28;19960;-25
2023/01/12 01:00:40;;;;;;;;;;;;;;;;;;5117812;28;19920;-28
2023/01/12 01:03:06;;;;;;;;;;;;;;;;;;5117615;28;20320;-29
2023/01/12 01:05:32;;;;;;;;;;;;;;;;;;5117570;28;19911;-28
2023/01/12 01:07:58;;;;;;;;;;;;;;;;;;5117585;28;19915;-27
2023/01/12 01:10:24;;;;;;;;;;;;;;;;;;5117865;28;19912;-29
2023/01/12 01:12:50;;;;;;;;;;;;;;;;;;5117180;28;20266;-26
2023/01/12 01:15:17;;;;;;;;;;;;;;;;;;5117717;28;19916;-31
2023/01/12 01:17:43;;;;;;;;;;;;;;;;;;5117695;28;20277;-27
2023/01/12 01:20:09;;;;;;;;;;;;;;;;;;5117321;28;19937;-24
2023/01/12 01:22:35;;;;;;;;;;;;;;;;;;5116775;28;19959;-24
2023/01/12 01:25:01;;;;;;;;;;;;;;;;;;5117191;28;20343;-31
2023/01/12 01:27:27;;;;;;;;;;;;;;;;;;5117272;28;19926;-26
2023/01/12 01:29:53;;;;;;;;;;;;;;;;;;5099276;28;19953;-28
2023/01/12 01:32:19;;;;;;;;;;;;;;;;;;5117191;28;20314;-25
2023/01/12 01:34:45;;;;;;;;;;;;;;;;;;5117164;28;19912;-30
2023/01/12 01:37:11;;;;;;;;;;;;;;;;;;5117314;28;20003;-28
2023/01/12 01:39:37;;;;;;;;;;;;;;;;;;5117040;28;19939;-25
2023/01/12 01:42:03;;;;;;;;;;;;;;;;;;5117045;28;19964;-30
2023/01/12 01:44:29;;;;;;;;;;;;;;;;;;5116913;28;20303;-32
2023/01/12 01:46:55;;;;;;;;;;;;;;;;;;5116829;28;19912;-32
2023/01/12 01:49:21;;;;;;;;;;;;;;;;;;5116849;28;20003;-34
2023/01/12 01:51:47;;;;;;;;;;;;;;;;;;5116721;28;19919;-28
2023/01/12 01:54:13;;;;;;;;;;;;;;;;;;5116722;28;19922;-26
2023/01/12 01:56:40;;;;;;;;;;;;;;;;;;5116659;28;19912;-27
2023/01/12 01:59:06;;;;;;;;;;;;;;;;;;5116604;28;19912;-24
2023/01/12 02:01:32;;;;;;;;;;;;;;;;;;5116494;28;19984;-25
2023/01/12 02:03:59;;;;;;;;;;;;;;;;;;5116550;28;19908;-25
2023/01/12 02:06:25;;;;;;;;;;;;;;;;;;5116514;28;19935;-28
2023/01/12 02:08:51;;;;;;;;;;;;;;;;;;5116773;28;19912;-29
2023/01/12 02:16:46;;;;;;;;;;;;;;;;;;5116417;28;19922;-25
2023/01/12 02:19:12;;;;;;;;;;;;;;;;;;5116309;28;19916;-26
2023/01/12 02:21:38;;;;;;;;;;;;;;;;;;5116206;28;19958;-28
2023/01/12 02:24:04;;;;;;;;;;;;;;;;;;5116176;28;19911;-25
2023/01/12 02:26:30;;;;;;;;;;;;;;;;;;5116051;28;19943;-26
2023/01/12 02:28:56;;;;;;;;;;;;;;;;;;5116064;28;19911;-31
2023/01/12 02:31:22;;;;;;;;;;;;;;;;;;5115941;28;19958;-28
2023/01/12 02:33:48;;;;;;;;;;;;;;;;;;5114983;28;20391;-28
2023/01/12 02:36:14;;;;;;;;;;;;;;;;;;5115883;28;19999;-25
2023/01/12 02:38:40;;;;;;;;;;;;;;;;;;5115882;28;20355;-27
2023/01/12 02:41:06;;;;;;;;;;;;;;;;;;5115816;28;20239;-29
2023/01/12 02:43:32;;;;;;;;;;;;;;;;;;5115700;28;20247;-33
2023/01/12 02:45:58;;;;;;;;;;;;;;;;;;5115682;28;19912;-28
2023/01/12 02:48:24;;;;;;;;;;;;;;;;;;5115950;28;20242;-28
2023/01/12 02:50:50;;;;;;;;;;;;;;;;;;5115984;28;19923;-24
2023/01/12 02:53:16;;;;;;;;;;;;;;;;;;5115539;28;19923;-31
2023/01/12 02:55:42;;;;;;;;;;;;;;;;;;5115862;28;19999;-32
2023/01/12 02:58:08;;;;;;;;;;;;;;;;;;5115580;28;19915;-29
2023/01/12 03:00:34;;;;;;;;;;;;;;;;;;5115609;28;19915;-28
2023/01/12 03:03:01;;;;;;;;;;;;;;;;;;5115729;28;19918;-27
2023/01/12 03:05:27;;;;;;;;;;;;;;;;;;5115772;28;20006;-33
2023/01/12 03:07:53;;;;;;;;;;;;;;;;;;5115448;28;19912;-24
2023/01/12 03:10:19;;;;;;;;;;;;;;;;;;5115349;28;19954;-28
2023/01/12 03:12:45;;;;;;;;;;;;;;;;;;5114997;28;19927;-27
2023/01/12 03:15:11;;;;;;;;;;;;;;;;;;5116066;28;19911;-29
2023/01/12 03:17:37;;;;;;;;;;;;;;;;;;5115558;28;19971;-28
2023/01/12 03:20:03;;;;;;;;;;;;;;;;;;5115537;28;19912;-30
2023/01/12 03:22:29;;;;;;;;;;;;;;;;;;5115412;28;19907;-26
2023/01/12 03:24:55;;;;;;;;;;;;;;;;;;5115238;28;19937;-29
2023/01/12 03:27:21;;;;;;;;;;;;;;;;;;5115454;28;19973;-27
2023/01/12 03:29:49;;;;;;;;;;;;;;;;;;5115441;28;20195;-30
2023/01/12 03:32:15;;;;;;;;;;;;;;;;;;5115520;28;19908;-31
2023/01/12 03:34:41;;;;;;;;;;;;;;;;;;5115159;28;19924;-25
2023/01/12 03:37:07;;;;;;;;;;;;;;;;;;5115359;28;19947;-29
2023/01/12 03:39:33;;;;;;;;;;;;;;;;;;5115086;28;20372;-29
2023/01/12 03:41:59;;;;;;;;;;;;;;;;;;5115488;28;20224;-26
2023/01/12 03:44:27;;;;;;;;;;;;;;;;;;5115348;28;20061;-28
2023/01/12 03:46:53;;;;;;;;;;;;;;;;;;5119234;28;19978;-27
2023/01/12 03:49:19;;;;;;;;;;;;;;;;;;5119445;28;19912;-27
2023/01/12 03:51:45;;;;;;;;;;;;;;;;;;5119360;28;19965;-23
2023/01/12 03:54:11;;;;;;;;;;;;;;;;;;5119046;28;19922;-31
2023/01/12 03:56:37;;;;;;;;;;;;;;;;;;5119235;28;20326;-26
2023/01/12 03:59:04;;;;;;;;;;;;;;;;;;5118962;28;20318;-33
2023/01/12 04:01:29;;;;;;;;;;;;;;;;;;5118889;28;20313;-28
2023/01/12 04:03:55;;;;;;;;;;;;;;;;;;5118890;28;19955;-30
2023/01/12 04:06:22;;;;;;;;;;;;;;;;;;5118862;28;19912;-27
2023/01/12 04:08:48;;;;;;;;;;;;;;;;;;5119123;28;19912;-30
2023/01/12 04:13:59;;;;;;;;;;;;;;;;;;5118691;28;20257;-29
2023/01/12 04:16:25;;;;;;;;;;;;;;;;;;5118678;28;19946;-27
2023/01/12 04:18:51;;;;;;;;;;;;;;;;;;5118962;28;19961;-25
2023/01/12 04:24:02;;;;;;;;;;;;;;;;;;5118532;28;19915;-29
2023/01/12 04:26:28;;;;;;;;;;;;;;;;;;5100541;28;20350;-27
2023/01/12 04:28:55;;;;;;;;;;;;;;;;;;5118407;28;19911;-28
2023/01/12 04:31:21;;;;;;;;;;;;;;;;;;5118546;28;19912;-30
2023/01/12 04:33:47;;;;;;;;;;;;;;;;;;5100178;28;20338;-27
2023/01/12 04:36:14;;;;;;;;;;;;;;;;;;5118438;28;19912;-35
2023/01/12 04:38:40;;;;;;;;;;;;;;;;;;5118001;28;19908;-25
2023/01/12 04:41:06;;;;;;;;;;;;;;;;;;5118052;28;19927;-30
2023/01/12 04:43:33;;;;;;;;;;;;;;;;;;5117826;28;19919;-24
2023/01/12 04:45:59;;;;;;;;;;;;;;;;;;5117984;28;20006;-25
2023/01/12 04:48:26;;;;;;;;;;;;;;;;;;5099905;28;20334;-30
2023/01/12 04:50:52;;;;;;;;;;;;;;;;;;5117779;28;20242;-27
2023/01/12 04:53:20;;;;;;;;;;;;;;;;;;5117760;28;20323;-29
2023/01/12 04:55:48;;;;;;;;;;;;;;;;;;5117672;28;20316;-26
2023/01/12 04:58:14;;;;;;;;;;;;;;;;;;5116929;28;19991;-27
2023/01/12 05:03:22;;;;;;;;;;;;;;;;;;5320736;23;19949;-25
2023/01/12 05:05:48;;;;;;;;;;;;;;;;;;5016916;28;19971;-25
2023/01/12 05:10:59;;;;;;;;;;;;;;;;;;5016853;28;19924;-25
2023/01/12 05:13:25;;;;;;;;;;;;;;;;;;5030893;28;19957;-25
2023/01/12 05:15:51;;;;;;;;;;;;;;;;;;5036475;28;19921;-25
2023/01/12 05:18:18;;;;;;;;;;;;;;;;;;5019051;28;19928;-25
2023/01/12 05:20:44;;;;;;;;;;;;;;;;;;5036107;28;19924;-25
2023/01/12 05:23:10;;;;;;;;;;;;;;;;;;5036505;28;19909;-25
2023/01/12 05:25:36;;;;;;;;;;;;;;;;;;5036169;28;19943;-25
2023/01/12 05:28:02;;;;;;;;;;;;;;;;;;5036049;28;19909;-25
2023/01/12 05:30:29;;;;;;;;;;;;;;;;;;5036637;28;19917;-25
2023/01/12 05:32:55;;;;;;;;;;;;;;;;;;5036220;28;20000;-25
2023/01/12 05:35:21;;;;;;;;;;;;;;;;;;5036101;28;19956;-25
2023/01/12 05:37:47;;;;;;;;;;;;;;;;;;5035838;28;19909;-25
2023/01/12 05:40:14;;;;;;;;;;;;;;;;;;5036211;28;20008;-25
2023/01/12 05:45:25;;;;;;;;;;;;;;;;;;5035949;28;19963;-25
2023/01/12 05:47:51;;;;;;;;;;;;;;;;;;5018202;28;19939;-25
2023/01/12 05:50:17;;;;;;;;;;;;;;;;;;5035779;28;19913;-25
2023/01/12 05:52:43;;;;;;;;;;;;;;;;;;5035707;28;19912;-25
2023/01/12 05:55:09;;;;;;;;;;;;;;;;;;5035567;28;19924;-25
2023/01/12 05:57:35;;;;;;;;;;;;;;;;;;5035557;28;20263;-25
2023/01/12 06:00:01;;;;;;;;;;;;;;;;;;5035393;28;20348;-25
2023/01/12 06:02:27;;;;;;;;;;;;;;;;;;5035244;28;20000;-25
2023/01/12 06:04:53;;;;;;;;;;;;;;;;;;5036396;28;19928;-25
2023/01/12 06:07:19;;;;;;;;;;;;;;;;;;5035622;28;19913;-25
2023/01/12 06:09:45;;;;;;;;;;;;;;;;;;5017867;28;19924;-25
2023/01/12 06:14:56;;;;;;;;;;;;;;;;;;5035785;28;19982;-25
2023/01/12 06:17:22;;;;;;;;;;;;;;;;;;5035437;28;19913;-25
2023/01/12 06:19:48;;;;;;;;;;;;;;;;;;5017997;28;19975;-25
2023/01/12 06:22:14;;;;;;;;;;;;;;;;;;5035125;28;19916;-25
2023/01/12 06:24:40;;;;;;;;;;;;;;;;;;5035300;28;19920;-25
2023/01/12 06:27:06;;;;;;;;;;;;;;;;;;5035052;28;20379;-25
2023/01/12 06:29:32;;;;;;;;;;;;;;;;;;5035257;28;19967;-25
2023/01/12 06:31:58;;;;;;;;;;;;;;;;;;5035165;28;20316;-25
2023/01/12 06:34:24;;;;;;;;;;;;;;;;;;5034778;28;20362;-25
2023/01/12 06:36:50;;;;;;;;;;;;;;;;;;5034747;28;19952;-25
2023/01/12 06:39:16;;;;;;;;;;;;;;;;;;5034673;28;19913;-25
2023/01/12 06:44:26;;;;;;;;;;;;;;;;;;5035137;28;19971;-23
2023/01/12 06:46:52;;;;;;;;;;;;;;;;;;5034938;28;20070;-23
2023/01/12 06:49:18;;;;;;;;;;;;;;;;;;5034544;28;19924;-25
2023/01/12 06:51:44;;;;;;;;;;;;;;;;;;5034514;28;19909;-25
2023/01/12 06:54:10;;;;;;;;;;;;;;;;;;5034565;28;19967;-25
2023/01/12 06:56:36;;;;;;;;;;;;;;;;;;5034923;28;20307;-23
2023/01/12 06:59:02;;;;;;;;;;;;;;;;;;5017131;28;19913;-23
2023/01/12 07:01:28;;;;;;;;;;;;;;;;;;5034500;28;20304;-26
2023/01/12 07:03:54;;;;;;;;;;;;;;;;;;5034303;28;19982;-25
2023/01/12 07:06:20;;;;;;;;;;;;;;;;;;5034257;28;19976;-25
2023/01/12 07:08:46;;;;;;;;;;;;;;;;;;5034295;28;20007;-25
2023/01/12 07:11:13;;;;;;;;;;;;;;;;;;5034144;28;20359;-25
2023/01/12 07:13:39;;;;;;;;;;;;;;;;;;5033828;28;19924;-25
2023/01/12 07:16:05;;;;;;;;;;;;;;;;;;5033540;28;19913;-25
2023/01/12 07:18:31;;;;;;;;;;;;;;;;;;5033467;28;19928;-25
2023/01/12 07:20:57;;;;;;;;;;;;;;;;;;5033143;28;19909;-25
2023/01/12 07:23:23;;;;;;;;;;;;;;;;;;5033543;28;20006;-25
2023/01/12 07:25:49;;;;;;;;;;;;;;;;;;5033342;28;19939;-24
2023/01/12 07:28:15;;;;;;;;;;;;;;;;;;5033480;28;20003;-25
2023/01/12 07:30:42;;;;;;;;;;;;;;;;;;5033338;28;19940;-25
2023/01/12 07:33:08;;;;;;;;;;;;;;;;;;5033503;28;20012;-25
2023/01/12 07:35:34;;;;;;;;;;;;;;;;;;5033317;28;20268;-25
2023/01/12 07:38:00;;;;;;;;;;;;;;;;;;5033744;28;20307;-25
2023/01/12 07:40:26;;;;;;;;;;;;;;;;;;5034127;28;19917;-25
2023/01/12 07:42:52;;;;;;;;;;;;;;;;;;5034279;28;20288;-25
2023/01/12 07:45:18;;;;;;;;;;;;;;;;;;5033952;28;19913;-25
2023/01/12 07:47:44;;;;;;;;;;;;;;;;;;5034073;28;19909;-25
2023/01/12 07:50:10;;;;;;;;;;;;;;;;;;5034014;28;20274;-25
2023/01/12 07:52:36;;;;;;;;;;;;;;;;;;5033926;28;19917;-25
2023/01/12 07:55:02;;;;;;;;;;;;;;;;;;5034073;28;19921;-25
2023/01/12 07:57:28;;;;;;;;;;;;;;;;;;5033879;28;19920;-23
2023/01/12 07:59:54;;;;;;;;;;;;;;;;;;5033823;28;19920;-24
2023/01/12 08:02:20;;;;;;;;;;;;;;;;;;5033715;28;19910;-25
2023/01/12 08:04:47;;;;;;;;;;;;;;;;;;5016475;28;19944;-23
2023/01/12 08:07:13;;;;;;;;;;;;;;;;;;5033894;28;19920;-24
2023/01/12 08:09:39;;;;;;;;;;;;;;;;;;5016204;28;19920;-24
2023/01/12 08:12:05;;;;;;;;;;;;;;;;;;5033837;28;19920;-24
2023/01/12 08:14:32;;;;;;;;;;;;;;;;;;5033937;28;19921;-23
2023/01/12 08:17:00;;;;;;;;;;;;;;;;;;5034233;28;19909;-24
2023/01/12 08:19:27;;;;;;;;;;;;;;;;;;5033776;28;20003;-24
2023/01/12 08:21:55;;;;;;;;;;;;;;;;;;5033826;28;20355;-24
2023/01/12 08:24:21;;;;;;;;;;;;;;;;;;5033958;28;20225;-24
2023/01/12 08:26:48;;;;;;;;;;;;;;;;;;5033608;28;20047;-24
2023/01/12 08:29:14;;;;;;;;;;;;;;;;;;5016189;28;20320;-24
2023/01/12 08:31:40;;;;;;;;;;;;;;;;;;5033940;28;19913;-24
2023/01/12 08:34:06;;;;;;;;;;;;;;;;;;5037022;28;19913;-24
2023/01/12 08:36:32;;;;;;;;;;;;;;;;;;5037023;28;19925;-24
2023/01/12 08:38:58;;;;;;;;;;;;;;;;;;5036853;28;19916;-24
2023/01/12 08:41:34;;;;;;;;;;;;;;;;;;5037084;28;19936;-24
2023/01/12 08:44:03;;;;;;;;;;;;;;;;;;5036714;28;19955;-24
2023/01/12 08:46:29;;;;;;;;;;;;;;;;;;5036968;28;19913;-24
2023/01/12 08:48:55;;;;;;;;;;;;;;;;;;5036715;28;20004;-24
2023/01/12 08:51:21;;;;;;;;;;;;;;;;;;5036481;28;20232;-24
2023/01/12 08:53:47;;;;;;;;;;;;;;;;;;5036183;28;19920;-24
2023/01/12 08:56:13;;;;;;;;;;;;;;;;;;5018839;28;19920;-24
2023/01/12 08:58:40;;;;;;;;;;;;;;;;;;5036680;28;20334;-24
2023/01/12 09:01:06;;;;;;;;;;;;;;;;;;5036445;28;20346;-24
2023/01/12 09:03:32;;;;;;;;;;;;;;;;;;5036024;28;20008;-24
2023/01/12 09:05:59;;;;;;;;;;;;;;;;;;5018753;28;19948;-24
2023/01/12 09:08:25;;;;;;;;;;;;;;;;;;5036219;28;19913;-25
2023/01/12 09:10:51;;;;;;;;;;;;;;;;;;5036504;28;19913;-25
2023/01/12 09:13:17;;;;;;;;;;;;;;;;;;5036600;28;19924;-26
2023/01/12 09:15:43;;;;;;;;;;;;;;;;;;5036265;28;20008;-26
2023/01/12 09:18:09;;;;;;;;;;;;;;;;;;5036834;28;19913;-25
2023/01/12 09:20:35;;;;;;;;;;;;;;;;;;5036340;28;19909;-25
2023/01/12 09:23:01;;;;;;;;;;;;;;;;;;5036699;28;20279;-25
2023/01/12 09:25:27;;;;;;;;;;;;;;;;;;5036120;28;19920;-25
2023/01/12 09:27:53;;;;;;;;;;;;;;;;;;5035767;28;19909;-26
2023/01/12 09:30:19;;;;;;;;;;;;;;;;;;5035834;28;19913;-25
2023/01/12 09:32:45;;;;;;;;;;;;;;;;;;5035922;28;19924;-25
2023/01/12 09:35:11;;;;;;;;;;;;;;;;;;5035940;28;20267;-26
2023/01/12 09:37:39;;;;;;;;;;;;;;;;;;5035970;28;19917;-25
2023/01/12 09:40:05;;;;;;;;;;;;;;;;;;5035963;28;19913;-26
2023/01/12 09:48:02;;;;;;;;;;;;;;;;;;5035298;28;20401;-25
2023/01/12 09:50:30;;;;;;;;;;;;;;;;;;5035204;28;19917;-25
2023/01/12 09:52:56;;;;;;;;;;;;;;;;;;5017269;28;19917;-25
2023/01/12 09:55:22;;;;;;;;;;;;;;;;;;5035060;28;19917;-26
2023/01/12 09:57:48;;;;;;;;;;;;;;;;;;5035046;28;19909;-25
2023/01/12 10:00:14;;;;;;;;;;;;;;;;;;5034768;28;19924;-25
2023/01/12 10:02:40;;;;;;;;;;;;;;;;;;5034453;28;19925;-25
2023/01/12 10:05:06;;;;;;;;;;;;;;;;;;5034966;28;19924;-25
2023/01/12 10:07:32;;;;;;;;;;;;;;;;;;5034515;28;19909;-26
2023/01/12 10:09:58;;;;;;;;;;;;;;;;;;5016846;28;19940;-24
2023/01/12 10:12:24;;;;;;;;;;;;;;;;;;5034199;28;19913;-24
2023/01/12 10:14:50;;;;;;;;;;;;;;;;;;5034545;28;19913;-23
2023/01/12 10:17:16;;;;;;;;;;;;;;;;;;5034440;28;19920;-23
2023/01/12 10:19:42;;;;;;;;;;;;;;;;;;5033979;28;19913;-24
2023/01/12 10:22:08;;;;;;;;;;;;;;;;;;5034378;28;19917;-23
2023/01/12 10:24:34;;;;;;;;;;;;;;;;;;5034768;28;19913;-24
2023/01/12 10:27:00;;;;;;;;;;;;;;;;;;5034712;28;19963;-24
2023/01/12 10:29:26;;;;;;;;;;;;;;;;;;5034953;28;19909;-24
2023/01/12 10:31:53;;;;;;;;;;;;;;;;;;5034952;28;19913;-24
2023/01/12 10:34:18;;;;;;;;;;;;;;;;;;5034784;28;20253;-24
2023/01/12 10:36:45;;;;;;;;;;;;;;;;;;5034744;28;19940;-24
2023/01/12 10:39:11;;;;;;;;;;;;;;;;;;5034709;28;20012;-23
2023/01/12 10:41:37;;;;;;;;;;;;;;;;;;5034396;28;20304;-25
2023/01/12 10:44:03;;;;;;;;;;;;;;;;;;5033855;28;19913;-24
2023/01/12 10:46:31;;;;;;;;;;;;;;;;;;5034167;28;19913;-24
2023/01/12 10:48:57;;;;;;;;;;;;;;;;;;5034208;28;19909;-24
2023/01/12 10:51:23;;;;;;;;;;;;;;;;;;5034319;28;19920;-24
2023/01/12 10:53:49;;;;;;;;;;;;;;;;;;5033783;28;19924;-25
2023/01/12 10:56:15;;;;;;;;;;;;;;;;;;5033542;28;20003;-25
2023/01/12 10:58:41;;;;;;;;;;;;;;;;;;5033818;28;20026;-25
2023/01/12 11:01:07;;;;;;;;;;;;;;;;;;5034224;28;20233;-26
2023/01/12 11:03:36;;;;;;;;;;;;;;;;;;5033864;28;19925;-26
2023/01/12 11:06:01;;;;;;;;;;;;;;;;;;5034231;28;19917;-25
2023/01/12 11:08:28;;;;;;;;;;;;;;;;;;5033940;28;20259;-25
2023/01/12 11:10:53;;;;;;;;;;;;;;;;;;5034085;28;20014;-23
2023/01/12 11:13:21;;;;;;;;;;;;;;;;;;5032976;28;20174;-26
2023/01/12 11:15:47;;;;;;;;;;;;;;;;;;5034550;28;19921;-23
2023/01/12 11:18:13;;;;;;;;;;;;;;;;;;5034128;28;19910;-23
2023/01/12 11:20:39;;;;;;;;;;;;;;;;;;5033889;28;19913;-23
2023/01/12 11:23:05;;;;;;;;;;;;;;;;;;5016232;28;19970;-24
2023/01/12 11:25:31;;;;;;;;;;;;;;;;;;5033815;28;19971;-23
2023/01/12 11:27:57;;;;;;;;;;;;;;;;;;5033568;28;19913;-23
2023/01/12 11:30:24;;;;;;;;;;;;;;;;;;5033621;28;19920;-23
2023/01/12 11:32:50;;;;;;;;;;;;;;;;;;5033422;28;19917;-24
2023/01/12 11:35:16;;;;;;;;;;;;;;;;;;5033673;28;19931;-23
2023/01/12 11:37:42;;;;;;;;;;;;;;;;;;5016096;28;20020;-23
2023/01/12 11:40:08;;;;;;;;;;;;;;;;;;5033598;28;19924;-23
2023/01/12 11:45:19;;;;;;;;;;;;;;;;;;5033810;28;19924;-23
2023/01/12 11:47:45;;;;;;;;;;;;;;;;;;5033472;28;19912;-25
2023/01/12 11:50:11;;;;;;;;;;;;;;;;;;5033539;28;19913;-25
2023/01/12 11:52:37;;;;;;;;;;;;;;;;;;5015438;28;20268;-25
2023/01/12 11:55:03;;;;;;;;;;;;;;;;;;5033509;28;19959;-23
2023/01/12 11:57:29;;;;;;;;;;;;;;;;;;5032757;28;19963;-26
2023/01/12 11:59:55;;;;;;;;;;;;;;;;;;5032779;28;20004;-26
2023/01/12 12:02:21;;;;;;;;;;;;;;;;;;5032554;28;20247;-25
2023/01/12 12:04:47;;;;;;;;;;;;;;;;;;5033068;28;19967;-24
2023/01/12 12:07:13;;;;;;;;;;;;;;;;;;5035782;28;20005;-25
2023/01/12 12:09:39;;;;;;;;;;;;;;;;;;5019056;28;19988;-24
2023/01/12 12:12:05;;;;;;;;;;;;;;;;;;5036572;28;19991;-24
2023/01/12 12:14:31;;;;;;;;;;;;;;;;;;5036461;28;19921;-24
2023/01/12 12:16:59;;;;;;;;;;;;;;;;;;5036647;28;19920;-24
2023/01/12 12:19:25;;;;;;;;;;;;;;;;;;5036420;28;19914;-24
2023/01/12 12:21:51;;;;;;;;;;;;;;;;;;5036264;28;20391;-24
2023/01/12 12:24:17;;;;;;;;;;;;;;;;;;5036740;28;19921;-24
2023/01/12 12:26:43;;;;;;;;;;;;;;;;;;5020195;28;19913;-24
2023/01/12 12:29:09;;;;;;;;;;;;;;;;;;5037247;28;20305;-24
2023/01/12 12:31:36;;;;;;;;;;;;;;;;;;5037532;28;19913;-24
2023/01/12 12:34:02;;;;;;;;;;;;;;;;;;5037364;28;19924;-24
2023/01/12 12:36:28;;;;;;;;;;;;;;;;;;5036922;28;19973;-27
2023/01/12 12:38:54;;;;;;;;;;;;;;;;;;5036563;28;20362;-25
2023/01/12 12:46:50;;;;;;;;;;;;;;;;;;5036981;28;19944;-23
2023/01/12 12:49:16;;;;;;;;;;;;;;;;;;5037276;28;19913;-23
2023/01/12 12:51:42;;;;;;;;;;;;;;;;;;5036691;28;19917;-24
2023/01/12 12:54:08;;;;;;;;;;;;;;;;;;5037010;28;19913;-24
2023/01/12 12:56:34;;;;;;;;;;;;;;;;;;5019417;28;19913;-23
2023/01/12 12:59:02;;;;;;;;;;;;;;;;;;5036909;28;19909;-24
2023/01/12 13:01:28;;;;;;;;;;;;;;;;;;5036749;28;19979;-25
2023/01/12 13:03:54;;;;;;;;;;;;;;;;;;5036483;28;19919;-24
2023/01/12 13:06:20;;;;;;;;;;;;;;;;;;5036858;28;19932;-24
2023/01/12 13:08:46;;;;;;;;;;;;;;;;;;5036725;28;20256;-24
2023/01/12 13:11:12;;;;;;;;;;;;;;;;;;5036521;28;19963;-24
2023/01/12 13:13:39;;;;;;;;;;;;;;;;;;5018820;28;19917;-25
2023/01/12 13:16:05;;;;;;;;;;;;;;;;;;5036382;28;19940;-25
2023/01/12 13:18:31;;;;;;;;;;;;;;;;;;5035741;28;19913;-24
2023/01/12 13:20:58;;;;;;;;;;;;;;;;;;5018646;28;19974;-25
2023/01/12 13:23:24;;;;;;;;;;;;;;;;;;5036258;28;19909;-25
2023/01/12 13:25:50;;;;;;;;;;;;;;;;;;5018822;28;19913;-25
2023/01/12 13:28:16;;;;;;;;;;;;;;;;;;5036444;28;20254;-25
2023/01/12 13:30:42;;;;;;;;;;;;;;;;;;5036162;28;19917;-25
2023/01/12 13:33:08;;;;;;;;;;;;;;;;;;5018573;28;19913;-25
2023/01/12 13:35:34;;;;;;;;;;;;;;;;;;5036097;28;20316;-25
2023/01/12 13:38:01;;;;;;;;;;;;;;;;;;5036555;28;19975;-25
2023/01/12 13:40:27;;;;;;;;;;;;;;;;;;5018901;28;19944;-25
2023/01/12 13:45:38;;;;;;;;;;;;;;;;;;5036101;28;20255;-25
2023/01/12 13:48:04;;;;;;;;;;;;;;;;;;5035736;28;19913;-25
2023/01/12 13:50:30;;;;;;;;;;;;;;;;;;5035661;28;19970;-25
2023/01/12 13:52:56;;;;;;;;;;;;;;;;;;5035774;28;19917;-25
2023/01/12 13:55:23;;;;;;;;;;;;;;;;;;5035742;28;19909;-25
2023/01/12 13:57:49;;;;;;;;;;;;;;;;;;5035426;28;19996;-25
2023/01/12 14:00:15;;;;;;;;;;;;;;;;;;5017689;28;20340;-25
2023/01/12 14:02:41;;;;;;;;;;;;;;;;;;5034706;28;20012;-25
2023/01/12 14:05:07;;;;;;;;;;;;;;;;;;5035676;28;20340;-25
2023/01/12 14:07:33;;;;;;;;;;;;;;;;;;5035626;28;19959;-25
2023/01/12 14:09:59;;;;;;;;;;;;;;;;;;5035731;28;19913;-24
2023/01/12 14:12:25;;;;;;;;;;;;;;;;;;5035088;28;19909;-24
2023/01/12 14:17:48;;;;;;;;;;;;;;;;;;5035454;28;20243;-24
2023/01/12 14:20:14;;;;;;;;;;;;;;;;;;5035312;28;19967;-23
2023/01/12 14:22:40;;;;;;;;;;;;;;;;;;5017591;28;19963;-23
2023/01/12 14:25:06;;;;;;;;;;;;;;;;;;5017639;28;20055;-23
2023/01/12 14:27:32;;;;;;;;;;;;;;;;;;5035105;28;20355;-24
2023/01/12 14:29:58;;;;;;;;;;;;;;;;;;5034088;28;20003;-24
2023/01/12 14:32:24;;;;;;;;;;;;;;;;;;5034864;28;19941;-24
2023/01/12 14:34:53;;;;;;;;;;;;;;;;;;5034778;28;20359;-24
2023/01/12 14:37:19;;;;;;;;;;;;;;;;;;5034816;28;19963;-24
2023/01/12 14:39:45;;;;;;;;;;;;;;;;;;5034864;28;20332;-24
2023/01/12 14:47:40;;;;;;;;;;;;;;;;;;5035200;28;19951;-24
2023/01/12 14:50:06;;;;;;;;;;;;;;;;;;5035284;28;20336;-24
2023/01/12 14:52:32;;;;;;;;;;;;;;;;;;5034575;28;19995;-24
2023/01/12 14:54:58;;;;;;;;;;;;;;;;;;5034682;28;19917;-24
2023/01/12 14:57:24;;;;;;;;;;;;;;;;;;5017148;28;20320;-24
2023/01/12 14:59:50;;;;;;;;;;;;;;;;;;5034668;28;19917;-24
2023/01/12 15:02:16;;;;;;;;;;;;;;;;;;5034293;28;19920;-24
2023/01/12 15:04:42;;;;;;;;;;;;;;;;;;5034623;28;19913;-24
2023/01/12 15:07:08;;;;;;;;;;;;;;;;;;5034613;28;19909;-24
2023/01/12 15:09:35;;;;;;;;;;;;;;;;;;5034258;28;20322;-24
2023/01/12 15:12:01;;;;;;;;;;;;;;;;;;5034426;28;19943;-23
2023/01/12 15:14:28;;;;;;;;;;;;;;;;;;5034292;28;20255;-25
2023/01/12 15:27:52;;;;;;;;;;;;;;;;;;5034593;28;19967;-24
2023/01/12 15:30:18;;;;;;;;;;;;;;;;;;5016873;28;20059;-24
2023/01/12 15:32:44;;;;;;;;;;;;;;;;;;5034211;28;20000;-24
2023/01/12 15:35:10;;;;;;;;;;;;;;;;;;5034139;28;19988;-24
2023/01/12 15:37:36;;;;;;;;;;;;;;;;;;5016603;28;20215;-24
2023/01/12 15:40:02;;;;;;;;;;;;;;;;;;5034315;28;19925;-24
2023/01/12 15:42:28;;;;;;;;;;;;;;;;;;5037512;28;19917;-24
2023/01/12 15:44:54;;;;;;;;;;;;;;;;;;5020609;28;19971;-24
2023/01/12 15:47:20;;;;;;;;;;;;;;;;;;5038395;28;20024;-24
2023/01/12 15:49:46;;;;;;;;;;;;;;;;;;5037956;28;19914;-24
2023/01/12 15:52:12;;;;;;;;;;;;;;;;;;5037880;28;20283;-24
2023/01/12 15:54:39;;;;;;;;;;;;;;;;;;5037918;28;19913;-24
2023/01/12 15:57:05;;;;;;;;;;;;;;;;;;5037976;28;19923;-24
2023/01/12 15:59:31;;;;;;;;;;;;;;;;;;5037792;28;19909;-24
2023/01/12 16:01:57;;;;;;;;;;;;;;;;;;5037992;28;19940;-24
2023/01/12 16:04:23;;;;;;;;;;;;;;;;;;5037422;28;19928;-24
2023/01/12 16:06:49;;;;;;;;;;;;;;;;;;5037650;28;19924;-24
2023/01/12 16:09:15;;;;;;;;;;;;;;;;;;5037879;28;19913;-24
2023/01/12 16:11:41;;;;;;;;;;;;;;;;;;5020049;28;19928;-24
2023/01/12 16:14:07;;;;;;;;;;;;;;;;;;5037593;28;20292;-24
2023/01/12 16:16:33;;;;;;;;;;;;;;;;;;5037507;28;20008;-24
2023/01/12 16:19:00;;;;;;;;;;;;;;;;;;5036954;28;19912;-25
2023/01/12 16:21:26;;;;;;;;;;;;;;;;;;5037091;28;19912;-24
2023/01/12 16:23:52;;;;;;;;;;;;;;;;;;5036676;28;20358;-24
2023/01/12 16:26:18;;;;;;;;;;;;;;;;;;5036919;28;19920;-25
2023/01/12 16:28:44;;;;;;;;;;;;;;;;;;5036856;28;20239;-24
2023/01/12 16:31:11;;;;;;;;;;;;;;;;;;5036674;28;19913;-24
2023/01/12 16:33:37;;;;;;;;;;;;;;;;;;5036561;28;19928;-24
2023/01/12 16:36:03;;;;;;;;;;;;;;;;;;5019575;28;19980;-24
2023/01/12 16:38:29;;;;;;;;;;;;;;;;;;5036665;28;19950;-25
2023/01/12 16:40:55;;;;;;;;;;;;;;;;;;5036928;28;19921;-25
2023/01/12 16:43:22;;;;;;;;;;;;;;;;;;5036778;28;19913;-24
2023/01/12 16:45:48;;;;;;;;;;;;;;;;;;5036949;28;19952;-25
2023/01/12 16:48:14;;;;;;;;;;;;;;;;;;5036927;28;19913;-30
2023/01/12 16:50:40;;;;;;;;;;;;;;;;;;5037245;28;20324;-24
2023/01/12 16:53:06;;;;;;;;;;;;;;;;;;5036091;28;19913;-24
2023/01/12 16:55:32;;;;;;;;;;;;;;;;;;5037065;28;19913;-24
2023/01/12 16:57:58;;;;;;;;;;;;;;;;;;5037278;28;19916;-25
2023/01/12 17:00:26;;;;;;;;;;;;;;;;;;5019604;28;19959;-24
2023/01/12 17:02:52;;;;;;;;;;;;;;;;;;5036680;28;19955;-25
2023/01/12 17:05:19;;;;;;;;;;;;;;;;;;5037172;28;19913;-25
2023/01/12 17:07:45;;;;;;;;;;;;;;;;;;5036819;28;19977;-24
2023/01/12 17:10:11;;;;;;;;;;;;;;;;;;5037016;28;20363;-25
2023/01/12 17:12:37;;;;;;;;;;;;;;;;;;5036426;28;20004;-24
2023/01/12 17:15:03;;;;;;;;;;;;;;;;;;5036644;28;19909;-24
2023/01/12 17:17:29;;;;;;;;;;;;;;;;;;5036939;28;20000;-25
2023/01/12 17:19:55;;;;;;;;;;;;;;;;;;5036543;28;19924;-25
2023/01/12 17:22:21;;;;;;;;;;;;;;;;;;5036598;28;19909;-25
2023/01/12 17:24:47;;;;;;;;;;;;;;;;;;5036742;28;20016;-25
2023/01/12 17:27:13;;;;;;;;;;;;;;;;;;5036251;28;19999;-25
2023/01/12 17:29:39;;;;;;;;;;;;;;;;;;5018856;28;20260;-25
2023/01/12 17:32:05;;;;;;;;;;;;;;;;;;5036583;28;19928;-25
2023/01/12 17:34:31;;;;;;;;;;;;;;;;;;5036114;28;19913;-25
2023/01/12 17:36:58;;;;;;;;;;;;;;;;;;5036359;28;19951;-25
2023/01/12 17:39:24;;;;;;;;;;;;;;;;;;5036150;28;19913;-24
2023/01/12 17:44:35;;;;;;;;;;;;;;;;;;5036157;28;20047;-30
2023/01/12 17:47:01;;;;;;;;;;;;;;;;;;5035963;28;20258;-25